createdAt,value
2019-05-03T00:00:13.250Z,96444.13
2019-05-03T00:03:20.356Z,96440.89
2019-05-03T00:06:27.277Z,96443.59
2019-05-03T00:09:34.249Z,96443.30
2019-05-03T00:12:42.278Z,96451.00
2019-05-03T00:16:06.249Z,96450.41
2019-05-03T00:19:13.255Z,96446.55
2019-05-03T00:22:21.717Z,96451.84
2019-05-03T00:25:28.877Z,96453.97
2019-05-03T00:28:35.806Z,96455.25
2019-05-03T00:31:42.591Z,96450.16
2019-05-03T00:34:52.340Z,96438.64
2019-05-03T00:39:13.066Z,96453.79
2019-05-03T00:43:05.672Z,96453.79
2019-05-03T00:46:12.718Z,96450.32
2019-05-03T00:49:22.639Z,96455.55
2019-05-03T00:52:31.696Z,96462.59
2019-05-03T00:55:38.278Z,96459.09
2019-05-03T00:58:49.468Z,96457.63
2019-05-03T01:01:55.596Z,96460.36
2019-05-03T01:05:02.887Z,96457.14
2019-05-03T01:08:10.128Z,96456.57
2019-05-03T01:11:17.237Z,96462.66
2019-05-03T01:14:24.282Z,96458.20
2019-05-03T01:17:32.549Z,96461.22
2019-05-03T01:20:42.170Z,96462.17
2019-05-03T01:26:28.592Z,96456.06
2019-05-03T01:29:35.644Z,96438.47
2019-05-03T01:32:42.492Z,96438.47
2019-05-03T01:35:49.350Z,96461.59
2019-05-03T01:38:56.254Z,96460.88
2019-05-03T01:42:03.282Z,96470.92
2019-05-03T01:45:11.947Z,96468.48
2019-05-03T01:48:29.605Z,96471.23
2019-05-03T01:51:52.603Z,96469.70
2019-05-03T01:54:59.659Z,96476.25
2019-05-03T01:58:06.508Z,96469.92
2019-05-03T02:01:19.363Z,96469.92
2019-05-03T02:04:35.111Z,96472.31
2019-05-03T02:07:42.357Z,96479.34
2019-05-03T02:10:49.242Z,96472.63
2019-05-03T02:13:56.265Z,96477.66
2019-05-03T02:17:03.252Z,96475.88
2019-05-03T02:20:10.260Z,96480.95
2019-05-03T02:23:17.245Z,96484.88
2019-05-03T02:26:24.270Z,96484.63
2019-05-03T02:29:32.577Z,96490.45
2019-05-03T02:32:39.721Z,96488.06
2019-05-03T02:35:47.261Z,96484.48
2019-05-03T02:38:54.539Z,96493.38
2019-05-03T02:42:10.131Z,96479.17
2019-05-03T02:45:11.584Z,96479.17
2019-05-03T02:48:20.254Z,96489.38
2019-05-03T02:51:26.654Z,96486.56
2019-05-03T02:54:35.365Z,96488.25
2019-05-03T02:57:42.237Z,96493.66
2019-05-03T03:01:02.034Z,96502.17
2019-05-03T03:04:09.261Z,96500.48
2019-05-03T03:07:16.253Z,96502.11
2019-05-03T03:10:26.288Z,96499.49
2019-05-03T03:13:36.558Z,96504.55
2019-05-03T03:16:45.539Z,96487.94
2019-05-03T03:19:55.120Z,96487.94
2019-05-03T03:23:00.686Z,96505.52
2019-05-03T03:26:07.286Z,96504.98
2019-05-03T03:29:16.484Z,96499.98
2019-05-03T03:32:29.736Z,96508.80
2019-05-03T03:35:40.612Z,96508.80
2019-05-03T03:38:47.529Z,96496.27
2019-05-03T03:41:55.757Z,96516.11
2019-05-03T03:45:06.070Z,96516.11
2019-05-03T03:48:15.590Z,96521.41
2019-05-03T03:51:22.352Z,96523.03
2019-05-03T03:54:30.241Z,96532.67
2019-05-03T03:57:37.250Z,96535.77
2019-05-03T04:00:46.463Z,96544.93
2019-05-03T04:03:52.931Z,96540.28
2019-05-03T04:07:01.366Z,96551.97
2019-05-03T04:10:08.706Z,96553.58
2019-05-03T04:13:17.265Z,96550.61
2019-05-03T04:16:26.245Z,96565.38
2019-05-03T04:19:36.428Z,96569.33
2019-05-03T04:22:45.245Z,96557.83
2019-05-03T04:25:52.538Z,96573.16
2019-05-03T04:28:59.465Z,96595.06
2019-05-03T04:32:09.467Z,96595.06
2019-05-03T04:35:16.666Z,96600.73
2019-05-03T04:38:25.654Z,96600.06
2019-05-03T04:41:32.421Z,96607.18
2019-05-03T04:44:40.129Z,96607.18
2019-05-03T04:47:47.176Z,96631.00
2019-05-03T04:50:55.006Z,96629.53
2019-05-03T04:54:20.295Z,96639.60
2019-05-03T04:57:39.648Z,96650.44
2019-05-03T05:00:36.157Z,96653.05
2019-05-03T05:03:45.677Z,96637.27
2019-05-03T05:06:52.450Z,96637.27
2019-05-03T05:09:58.539Z,96658.43
2019-05-03T05:13:05.377Z,96662.70
2019-05-03T05:16:12.894Z,96670.51
2019-05-03T05:19:25.283Z,96670.36
2019-05-03T05:22:34.952Z,96666.91
2019-05-03T05:25:50.709Z,96674.69
2019-05-03T05:28:59.364Z,96676.73
2019-05-03T05:32:06.251Z,96673.82
2019-05-03T05:35:14.377Z,96676.34
2019-05-03T05:38:21.650Z,96681.80
2019-05-03T05:41:30.268Z,96686.08
2019-05-03T05:44:37.344Z,96685.19
2019-05-03T05:47:45.926Z,96689.67
2019-05-03T05:50:55.177Z,96697.06
2019-05-03T05:54:02.309Z,96694.80
2019-05-03T05:57:14.984Z,96694.80
2019-05-03T06:00:32.745Z,96700.88
2019-05-03T06:03:40.313Z,96697.28
2019-05-03T06:06:58.292Z,96701.14
2019-05-03T06:10:16.721Z,96708.23
2019-05-03T06:13:31.344Z,96708.16
2019-05-03T06:16:45.060Z,96716.13
2019-05-03T06:20:02.933Z,96719.17
2019-05-03T06:23:14.836Z,96727.20
2019-05-03T06:26:38.429Z,96720.89
2019-05-03T06:29:47.241Z,96726.09
2019-05-03T06:32:55.141Z,96726.09
2019-05-03T06:36:02.295Z,96729.47
2019-05-03T06:39:10.256Z,96729.45
2019-05-03T06:42:19.259Z,96735.97
2019-05-03T06:45:25.904Z,96736.06
2019-05-03T06:48:34.784Z,96736.06
2019-05-03T06:51:45.646Z,96736.63
2019-05-03T06:54:50.925Z,96739.80
2019-05-03T06:57:58.385Z,96741.13
2019-05-03T07:01:14.752Z,96742.98
2019-05-03T07:04:24.396Z,96748.65
2019-05-03T07:07:44.576Z,96751.35
2019-05-03T07:10:54.969Z,96734.95
2019-05-03T07:14:01.872Z,96734.95
2019-05-03T07:17:08.899Z,96751.93
2019-05-03T07:20:16.147Z,96762.48
2019-05-03T07:23:24.492Z,96761.37
2019-05-03T07:26:31.668Z,96772.53
2019-05-03T07:29:38.657Z,96772.53
2019-05-03T07:32:47.255Z,96787.81
2019-05-03T07:35:54.823Z,96787.81
2019-05-03T07:39:02.267Z,96798.83
2019-05-03T07:42:10.537Z,96798.90
2019-05-03T07:45:18.286Z,96802.11
2019-05-03T07:48:25.686Z,96792.37
2019-05-03T07:51:34.753Z,96786.23
2019-05-03T07:54:41.940Z,96787.45
2019-05-03T07:57:53.057Z,96780.75
2019-05-03T08:01:09.325Z,96777.83
2019-05-03T08:04:15.663Z,96786.98
2019-05-03T08:07:23.467Z,96791.08
2019-05-03T08:10:34.636Z,96795.62
2019-05-03T08:13:41.670Z,96798.69
2019-05-03T08:16:48.543Z,96794.10
2019-05-03T08:19:59.472Z,96786.39
2019-05-03T08:23:25.891Z,96777.06
2019-05-03T08:26:21.270Z,96777.06
2019-05-03T08:29:28.266Z,96790.85
2019-05-03T08:32:46.264Z,96782.92
2019-05-03T08:35:55.479Z,96786.20
2019-05-03T08:39:06.251Z,96781.23
2019-05-03T08:42:19.515Z,96781.23
2019-05-03T08:45:26.304Z,96797.06
2019-05-03T08:48:35.278Z,96788.45
2019-05-03T08:51:41.944Z,96794.97
2019-05-03T08:54:48.855Z,96784.95
2019-05-03T08:57:55.688Z,96786.75
2019-05-03T09:01:02.579Z,96786.91
2019-05-03T09:04:12.317Z,96787.45
2019-05-03T09:07:19.284Z,96782.80
2019-05-03T09:10:30.898Z,96775.98
2019-05-03T09:13:56.303Z,96772.03
2019-05-03T09:17:04.930Z,96758.11
2019-05-03T09:20:12.221Z,96762.02
2019-05-03T09:23:19.242Z,96766.14
2019-05-03T09:26:29.516Z,96758.52
2019-05-03T09:29:43.191Z,96748.78
2019-05-03T09:32:45.662Z,96748.83
2019-05-03T09:35:55.020Z,96757.55
2019-05-03T09:39:02.251Z,96749.82
2019-05-03T09:42:10.669Z,96741.22
2019-05-03T09:45:17.502Z,96740.26
2019-05-03T09:48:25.468Z,96751.00
2019-05-03T09:51:34.843Z,96753.73
2019-05-03T09:54:54.774Z,96738.33
2019-05-03T09:58:02.705Z,96740.60
2019-05-03T10:01:10.007Z,96734.45
2019-05-03T10:04:18.078Z,96741.23
2019-05-03T10:07:25.903Z,96734.08
2019-05-03T10:10:35.690Z,96750.30
2019-05-03T10:13:42.957Z,96735.36
2019-05-03T10:17:05.093Z,96737.00
2019-05-03T10:20:15.510Z,96748.50
2019-05-03T10:23:24.799Z,96747.70
2019-05-03T10:26:31.639Z,96737.45
2019-05-03T10:29:38.606Z,96752.45
2019-05-03T10:32:48.504Z,96725.55
2019-05-03T10:35:55.315Z,96725.55
2019-05-03T10:39:02.253Z,96734.73
2019-05-03T10:42:10.746Z,96726.81
2019-05-03T10:45:17.870Z,96738.81
2019-05-03T10:48:25.187Z,96737.66
2019-05-03T10:51:35.948Z,96737.61
2019-05-03T10:54:42.729Z,96734.52
2019-05-03T10:57:51.252Z,96746.66
2019-05-03T11:00:58.231Z,96741.77
2019-05-03T11:04:05.528Z,96734.16
2019-05-03T11:07:12.416Z,96733.20
2019-05-03T11:10:19.671Z,96738.28
2019-05-03T11:13:26.535Z,96738.78
2019-05-03T11:16:35.159Z,96737.34
2019-05-03T11:19:45.486Z,96733.11
2019-05-03T11:22:54.717Z,96740.36
2019-05-03T11:26:00.552Z,96732.36
2019-05-03T11:29:06.465Z,96733.74
2019-05-03T11:32:17.558Z,96731.57
2019-05-03T11:35:26.443Z,96732.45
2019-05-03T11:38:35.261Z,96747.84
2019-05-03T11:41:45.064Z,96747.84
2019-05-03T11:44:52.243Z,96745.97
2019-05-03T11:47:59.246Z,96741.88
2019-05-03T11:51:06.258Z,96726.31
2019-05-03T11:54:15.506Z,96723.83
2019-05-03T11:57:28.914Z,96721.25
2019-05-03T12:00:37.539Z,96727.00
2019-05-03T12:03:46.251Z,96704.02
2019-05-03T12:06:54.995Z,96704.02
2019-05-03T12:10:16.454Z,96716.70
2019-05-03T12:13:16.816Z,96721.48
2019-05-03T12:16:59.831Z,96720.67
2019-05-03T12:19:32.875Z,96721.15
2019-05-03T12:22:41.160Z,96713.30
2019-05-03T12:25:48.844Z,96710.92
2019-05-03T12:28:56.557Z,96710.92
2019-05-03T12:32:05.254Z,96704.19
2019-05-03T12:35:12.246Z,96704.19
2019-05-03T12:38:20.762Z,96728.45
2019-05-03T12:41:27.468Z,96735.47
2019-05-03T12:44:35.447Z,96752.06
2019-05-03T12:47:42.666Z,96740.93
2019-05-03T12:50:49.966Z,96756.34
2019-05-03T12:53:57.305Z,96736.38
2019-05-03T12:57:05.331Z,96732.75
2019-05-03T13:00:31.261Z,96729.45
2019-05-03T13:03:39.920Z,96719.59
2019-05-03T13:06:48.764Z,96717.86
2019-05-03T13:09:55.687Z,96714.38
2019-05-03T13:13:02.639Z,96705.91
2019-05-03T13:16:10.969Z,96708.30
2019-05-03T13:19:18.224Z,96704.07
2019-05-03T13:22:25.366Z,96705.44
2019-05-03T13:25:32.624Z,96703.38
2019-05-03T13:28:41.695Z,96712.66
2019-05-03T13:31:58.436Z,96708.83
2019-05-03T13:34:56.018Z,96703.06
2019-05-03T13:38:03.264Z,96697.34
2019-05-03T13:41:10.276Z,96710.45
2019-05-03T13:44:17.275Z,96705.38
2019-05-03T13:47:24.430Z,96697.84
2019-05-03T13:50:31.722Z,96691.36
2019-05-03T13:53:38.462Z,96685.52
2019-05-03T13:56:46.652Z,96680.22
2019-05-03T13:59:54.976Z,96680.22
2019-05-03T14:03:01.582Z,96670.49
2019-05-03T14:06:08.981Z,96671.31
2019-05-03T14:09:16.259Z,96677.16
2019-05-03T14:12:24.401Z,96663.61
2019-05-03T14:15:31.579Z,96669.91
2019-05-03T14:18:41.194Z,96653.58
2019-05-03T14:21:48.610Z,96653.58
2019-05-03T14:24:55.546Z,96648.65
2019-05-03T14:28:02.450Z,96658.17
2019-05-03T14:31:08.620Z,96658.17
2019-05-03T14:34:17.499Z,96660.63
2019-05-03T14:37:23.897Z,96665.52
2019-05-03T14:40:30.712Z,96664.27
2019-05-03T14:43:37.521Z,96662.95
2019-05-03T14:46:45.816Z,96659.13
2019-05-03T14:49:54.591Z,96664.23
2019-05-03T14:53:01.521Z,96652.40
2019-05-03T14:56:10.277Z,96665.19
2019-05-03T14:59:31.663Z,96665.19
2019-05-03T15:02:45.968Z,96654.31
2019-05-03T15:05:49.000Z,96654.84
2019-05-03T15:08:55.764Z,96651.06
2019-05-03T15:12:05.462Z,96651.84
2019-05-03T15:15:14.660Z,96628.81
2019-05-03T15:18:21.446Z,96637.90
2019-05-03T15:21:28.386Z,96637.90
2019-05-03T15:24:35.509Z,96632.23
2019-05-03T15:27:42.325Z,96630.19
2019-05-03T15:30:49.248Z,96628.27
2019-05-03T15:33:56.246Z,96639.51
2019-05-03T15:37:05.223Z,96640.33
2019-05-03T15:40:12.271Z,96640.56
2019-05-03T15:43:20.879Z,96639.80
2019-05-03T15:46:41.478Z,96637.66
2019-05-03T15:49:48.356Z,96644.43
2019-05-03T15:52:55.237Z,96644.73
2019-05-03T15:56:02.264Z,96641.76
2019-05-03T15:59:10.259Z,96641.20
2019-05-03T16:02:17.245Z,96636.59
2019-05-03T16:05:26.500Z,96638.00
2019-05-03T16:08:33.272Z,96647.67
2019-05-03T16:11:41.710Z,96647.92
2019-05-03T16:14:48.476Z,96644.03
2019-05-03T16:17:55.295Z,96646.41
2019-05-03T16:21:02.491Z,96645.27
2019-05-03T16:24:09.365Z,96657.66
2019-05-03T16:27:24.885Z,96651.57
2019-05-03T16:30:36.771Z,96654.55
2019-05-03T16:33:45.687Z,96644.08
2019-05-03T16:36:54.834Z,96652.06
2019-05-03T16:40:00.950Z,96654.34
2019-05-03T16:43:08.115Z,96651.50
2019-05-03T16:46:15.036Z,96650.30
2019-05-03T16:49:22.225Z,96644.58
2019-05-03T16:52:29.438Z,96646.09
2019-05-03T16:55:36.388Z,96640.94
2019-05-03T16:58:44.750Z,96620.52
2019-05-03T17:01:51.764Z,96620.52
2019-05-03T17:05:04.740Z,96647.77
2019-05-03T17:08:16.273Z,96641.79
2019-05-03T17:11:26.250Z,96636.77
2019-05-03T17:14:34.450Z,96635.06
2019-05-03T17:17:40.554Z,96637.12
2019-05-03T17:20:47.250Z,96626.66
2019-05-03T17:23:55.834Z,96629.12
2019-05-03T17:27:02.624Z,96631.64
2019-05-03T17:30:11.895Z,96628.08
2019-05-03T17:33:20.235Z,96629.73
2019-05-03T17:36:27.347Z,96636.11
2019-05-03T17:39:55.196Z,96638.11
2019-05-03T17:43:05.048Z,96628.98
2019-05-03T17:46:14.904Z,96636.66
2019-05-03T17:49:22.269Z,96637.54
2019-05-03T17:52:31.551Z,96633.58
2019-05-03T17:55:46.127Z,96647.11
2019-05-03T17:58:57.430Z,96647.11
2019-05-03T18:02:17.075Z,96643.60
2019-05-03T18:05:34.346Z,96622.88
2019-05-03T18:08:48.626Z,96622.88
2019-05-03T18:12:01.712Z,96645.10
2019-05-03T18:15:08.599Z,96645.10
2019-05-03T18:18:16.072Z,96640.81
2019-05-03T18:21:24.438Z,96646.35
2019-05-03T18:24:34.813Z,96643.76
2019-05-03T18:27:44.561Z,96644.88
2019-05-03T18:30:52.065Z,96651.52
2019-05-03T18:33:59.055Z,96656.61
2019-05-03T18:37:06.278Z,96655.14
2019-05-03T18:40:13.339Z,96653.75
2019-05-03T18:43:34.619Z,96669.94
2019-05-03T18:46:44.570Z,96670.02
2019-05-03T18:49:52.739Z,96671.91
2019-05-03T18:53:08.931Z,96669.14
2019-05-03T18:56:16.275Z,96670.78
2019-05-03T18:59:26.381Z,96678.61
2019-05-03T19:02:34.845Z,96676.92
2019-05-03T19:05:45.235Z,96684.30
2019-05-03T19:09:03.017Z,96685.58
2019-05-03T19:12:15.402Z,96683.70
2019-05-03T19:15:26.373Z,96678.68
2019-05-03T19:18:37.997Z,96678.68
2019-05-03T19:21:47.266Z,96684.44
2019-05-03T19:24:54.319Z,96681.82
2019-05-03T19:28:01.272Z,96688.39
2019-05-03T19:31:09.705Z,96671.14
2019-05-03T19:34:18.036Z,96682.88
2019-05-03T19:37:27.302Z,96677.98
2019-05-03T19:40:35.074Z,96680.06
2019-05-03T19:43:42.256Z,96677.91
2019-05-03T19:46:50.254Z,96682.30
2019-05-03T19:54:05.467Z,96679.44
2019-05-03T19:57:15.195Z,96673.64
2019-05-03T20:00:26.281Z,96673.64
2019-05-03T20:03:35.109Z,96679.61
2019-05-03T20:06:49.253Z,96678.39
2019-05-03T20:09:57.236Z,96685.04
2019-05-03T20:13:04.714Z,96684.61
2019-05-03T20:16:12.630Z,96686.61
2019-05-03T20:19:21.340Z,96666.72
2019-05-03T20:22:28.245Z,96674.16
2019-05-03T20:25:36.280Z,96653.27
2019-05-03T20:28:44.982Z,96664.20
2019-05-03T20:31:51.737Z,96671.63
2019-05-03T20:35:10.885Z,96673.00
2019-05-03T20:38:10.410Z,96653.64
2019-05-03T20:41:16.669Z,96653.64
2019-05-03T20:44:38.285Z,96666.27
2019-05-03T20:47:49.570Z,96659.64
2019-05-03T20:50:56.627Z,96666.28
2019-05-03T20:54:04.904Z,96666.28
2019-05-03T20:57:14.372Z,96666.03
2019-05-03T21:00:22.682Z,96654.28
2019-05-03T21:03:30.905Z,96659.67
2019-05-03T21:06:37.733Z,96663.14
2019-05-03T21:09:45.614Z,96657.74
2019-05-03T21:12:54.382Z,96653.89
2019-05-03T21:16:08.918Z,96657.08
2019-05-03T21:19:20.268Z,96649.72
2019-05-03T21:22:28.270Z,96644.75
2019-05-03T21:26:05.577Z,96645.55
2019-05-03T21:28:55.362Z,96643.91
2019-05-03T21:32:01.589Z,96647.77
2019-05-03T21:35:08.269Z,96637.77
2019-05-03T21:38:15.040Z,96634.14
2019-05-03T21:41:21.913Z,96628.14
2019-05-03T21:44:33.264Z,96625.30
2019-05-03T21:47:48.170Z,96621.19
2019-05-03T21:55:29.475Z,96616.20
2019-05-03T21:58:39.703Z,96603.91
2019-05-03T22:01:48.590Z,96603.91
2019-05-03T22:04:58.641Z,96612.58
2019-05-03T22:08:08.269Z,96620.14
2019-05-03T22:11:17.493Z,96621.75
2019-05-03T22:14:29.629Z,96609.56
2019-05-03T22:17:39.430Z,96612.52
2019-05-03T22:21:05.620Z,96612.52
2019-05-03T22:24:30.108Z,96614.67
2019-05-03T22:27:38.563Z,96610.04
2019-05-03T22:30:45.451Z,96597.70
2019-05-03T22:33:52.295Z,96597.70
2019-05-03T22:36:59.269Z,96615.97
2019-05-03T22:40:07.283Z,96602.13
2019-05-03T22:43:14.752Z,96604.28
2019-05-03T22:46:22.089Z,96596.08
2019-05-03T22:49:29.294Z,96596.50
2019-05-03T22:52:36.271Z,96596.50
2019-05-03T22:55:45.074Z,96569.89
2019-05-03T22:58:51.781Z,96569.89
2019-05-03T23:01:58.549Z,96585.41
2019-05-03T23:05:06.855Z,96567.68
2019-05-03T23:08:14.799Z,96567.68
2019-05-03T23:11:22.041Z,96573.39
2019-05-03T23:14:29.122Z,96568.85
2019-05-03T23:17:36.184Z,96563.16
2019-05-03T23:20:48.281Z,96545.66
2019-05-03T23:23:55.155Z,96545.66
2019-05-03T23:27:02.253Z,96544.00
2019-05-03T23:30:09.251Z,96544.00
2019-05-03T23:33:16.237Z,96539.28
2019-05-03T23:36:33.103Z,96536.27
2019-05-03T23:39:31.786Z,96525.77
2019-05-03T23:42:38.661Z,96524.11
2019-05-03T23:45:45.426Z,96502.02
2019-05-03T23:48:51.519Z,96502.02
2019-05-03T23:51:59.733Z,96489.14
2019-05-03T23:55:09.275Z,96489.14
2019-05-03T23:58:16.264Z,96502.87
